createdAt,value
2018-07-22T00:00:52.008Z,0.00
2018-07-22T00:01:52.011Z,0.00
2018-07-22T00:02:52.015Z,0.00
2018-07-22T00:03:52.019Z,0.00
2018-07-22T00:04:52.022Z,0.00
2018-07-22T00:05:52.025Z,0.00
2018-07-22T00:06:52.027Z,0.00
2018-07-22T00:07:52.033Z,0.00
2018-07-22T00:08:52.035Z,0.00
2018-07-22T00:09:52.040Z,0.00
2018-07-22T00:10:52.041Z,0.00
2018-07-22T00:11:52.045Z,0.00
2018-07-22T00:12:52.049Z,0.00
2018-07-22T00:13:52.052Z,0.00
2018-07-22T00:14:52.056Z,0.00
2018-07-22T00:15:52.059Z,0.00
2018-07-22T00:16:52.062Z,0.00
2018-07-22T00:17:52.066Z,0.00
2018-07-22T00:18:52.069Z,0.00
2018-07-22T00:19:52.072Z,0.00
2018-07-22T00:20:52.077Z,0.00
2018-07-22T00:21:52.080Z,0.00
2018-07-22T00:22:52.083Z,0.00
2018-07-22T00:23:52.085Z,0.00
2018-07-22T00:24:52.092Z,0.00
2018-07-22T00:25:52.092Z,0.00
2018-07-22T00:26:52.096Z,0.00
2018-07-22T00:27:52.102Z,0.00
2018-07-22T00:28:52.101Z,0.00
2018-07-22T00:29:52.106Z,0.00
2018-07-22T00:30:52.108Z,0.00
2018-07-22T00:31:52.111Z,0.00
2018-07-22T00:32:52.117Z,0.00
2018-07-22T00:33:52.119Z,0.00
2018-07-22T00:34:52.120Z,0.00
2018-07-22T00:35:52.124Z,0.00
2018-07-22T00:36:52.128Z,0.00
2018-07-22T00:37:52.131Z,0.00
2018-07-22T00:38:52.134Z,0.00
2018-07-22T00:39:52.136Z,0.00
2018-07-22T00:40:52.143Z,0.00
2018-07-22T00:41:52.144Z,0.00
2018-07-22T00:42:52.147Z,0.00
2018-07-22T00:43:52.149Z,0.00
2018-07-22T00:44:52.153Z,0.00
2018-07-22T00:45:52.157Z,0.00
2018-07-22T00:46:52.159Z,0.00
2018-07-22T00:47:52.160Z,0.00
2018-07-22T00:48:52.165Z,0.00
2018-07-22T00:49:52.169Z,0.00
2018-07-22T00:50:52.170Z,0.00
2018-07-22T00:51:52.175Z,0.00
2018-07-22T00:52:52.177Z,0.00
2018-07-22T00:53:52.179Z,0.00
2018-07-22T00:54:52.182Z,0.00
2018-07-22T00:55:52.186Z,0.00
2018-07-22T00:56:52.189Z,0.00
2018-07-22T00:57:52.192Z,0.00
2018-07-22T00:58:52.195Z,0.00
2018-07-22T00:59:52.203Z,0.00
2018-07-22T01:00:52.201Z,0.00
2018-07-22T01:01:52.204Z,0.00
2018-07-22T01:02:52.210Z,0.00
2018-07-22T01:03:52.212Z,0.00
2018-07-22T01:04:52.213Z,0.00
2018-07-22T01:05:52.216Z,0.00
2018-07-22T01:06:52.219Z,0.00
2018-07-22T01:07:52.222Z,0.00
2018-07-22T01:08:52.224Z,0.00
2018-07-22T01:09:52.227Z,0.00
2018-07-22T01:10:52.229Z,0.00
2018-07-22T01:11:52.234Z,0.00
2018-07-22T01:12:52.240Z,0.00
2018-07-22T01:13:52.240Z,0.00
2018-07-22T01:14:52.240Z,0.00
2018-07-22T01:15:52.245Z,0.00
2018-07-22T01:16:52.248Z,0.00
2018-07-22T01:17:52.250Z,0.00
2018-07-22T01:18:52.252Z,0.00
2018-07-22T01:19:52.255Z,0.00
2018-07-22T01:20:52.258Z,0.00
2018-07-22T01:21:52.260Z,0.00
2018-07-22T01:22:52.263Z,0.00
2018-07-22T01:23:52.266Z,0.00
2018-07-22T01:24:52.268Z,0.00
2018-07-22T01:25:52.275Z,0.00
2018-07-22T01:26:52.274Z,0.00
2018-07-22T01:27:52.278Z,0.00
2018-07-22T01:28:52.279Z,0.00
2018-07-22T01:29:52.283Z,0.00
2018-07-22T01:30:52.284Z,0.00
2018-07-22T01:31:52.289Z,0.00
2018-07-22T01:32:52.292Z,0.00
2018-07-22T01:33:52.292Z,0.00
2018-07-22T01:34:52.296Z,0.00
2018-07-22T01:35:52.298Z,0.00
2018-07-22T01:36:52.300Z,0.00
2018-07-22T01:37:52.303Z,0.00
2018-07-22T01:38:52.307Z,0.00
2018-07-22T01:39:52.308Z,0.00
2018-07-22T01:40:52.312Z,0.00
2018-07-22T01:41:52.317Z,0.00
2018-07-22T01:42:52.316Z,0.00
2018-07-22T01:43:52.318Z,0.00
2018-07-22T01:44:52.321Z,0.00
2018-07-22T01:45:52.325Z,0.00
2018-07-22T01:46:52.325Z,0.00
2018-07-22T01:47:52.328Z,0.00
2018-07-22T01:48:52.331Z,0.00
2018-07-22T01:49:52.335Z,0.00
2018-07-22T01:50:52.338Z,0.00
2018-07-22T01:51:52.338Z,0.00
2018-07-22T01:52:52.341Z,0.00
2018-07-22T01:53:52.344Z,0.00
2018-07-22T01:54:52.344Z,0.00
2018-07-22T01:55:52.348Z,0.00
2018-07-22T01:56:52.351Z,0.00
2018-07-22T01:57:52.354Z,0.00
2018-07-22T01:58:52.355Z,0.00
2018-07-22T01:59:52.357Z,0.00
2018-07-22T02:00:52.360Z,0.00
2018-07-22T02:01:52.362Z,0.00
2018-07-22T02:02:52.364Z,0.00
2018-07-22T02:03:52.368Z,0.00
2018-07-22T02:04:52.370Z,0.00
2018-07-22T02:05:52.372Z,0.00
2018-07-22T02:06:52.374Z,0.00
2018-07-22T02:07:52.376Z,0.00
2018-07-22T02:08:52.379Z,0.00
2018-07-22T02:09:52.380Z,0.00
2018-07-22T02:10:52.383Z,0.00
2018-07-22T02:11:52.384Z,0.00
2018-07-22T02:12:52.387Z,0.00
2018-07-22T02:13:52.390Z,0.00
2018-07-22T02:14:52.392Z,0.00
2018-07-22T02:15:52.395Z,0.00
2018-07-22T02:16:52.394Z,0.00
2018-07-22T02:17:52.398Z,0.00
2018-07-22T02:18:52.400Z,0.00
2018-07-22T02:19:52.401Z,0.00
2018-07-22T02:20:52.447Z,0.00
2018-07-22T02:21:52.406Z,0.00
2018-07-22T02:22:52.407Z,0.00
2018-07-22T02:23:52.409Z,0.00
2018-07-22T02:24:52.413Z,0.00
2018-07-22T02:25:52.415Z,0.00
2018-07-22T02:26:52.415Z,0.00
2018-07-22T02:27:52.418Z,0.00
2018-07-22T02:28:52.421Z,0.00
2018-07-22T02:29:52.422Z,0.00
2018-07-22T02:30:52.425Z,0.00
2018-07-22T02:31:52.427Z,0.00
2018-07-22T02:32:52.428Z,0.00
2018-07-22T02:33:52.431Z,0.00
2018-07-22T02:34:52.437Z,0.00
2018-07-22T02:35:52.436Z,0.00
2018-07-22T02:36:52.438Z,0.00
2018-07-22T02:37:52.440Z,0.00
2018-07-22T02:38:52.441Z,0.00
2018-07-22T02:39:52.445Z,0.00
2018-07-22T02:40:52.448Z,0.00
2018-07-22T02:41:52.449Z,0.00
2018-07-22T02:42:52.447Z,0.00
2018-07-22T02:43:52.452Z,0.00
2018-07-22T02:44:52.452Z,0.00
2018-07-22T02:45:52.456Z,0.00
2018-07-22T02:46:52.456Z,0.00
2018-07-22T02:47:52.458Z,0.00
2018-07-22T02:48:52.461Z,0.00
2018-07-22T02:49:52.464Z,0.00
2018-07-22T02:50:52.464Z,0.00
2018-07-22T02:51:52.468Z,0.00
2018-07-22T02:52:52.473Z,0.00
2018-07-22T02:53:52.475Z,0.00
2018-07-22T02:54:52.472Z,0.00
2018-07-22T02:55:52.474Z,0.00
2018-07-22T02:56:52.476Z,0.00
2018-07-22T02:57:52.478Z,0.00
2018-07-22T02:58:52.481Z,4.00
2018-07-22T02:59:52.483Z,4.00
2018-07-22T03:00:52.484Z,0.00
2018-07-22T03:01:52.490Z,0.00
2018-07-22T03:02:52.487Z,4.00
2018-07-22T03:03:52.489Z,4.00
2018-07-22T03:04:52.491Z,4.00
2018-07-22T03:05:52.493Z,4.00
2018-07-22T03:06:52.495Z,4.00
2018-07-22T03:07:52.496Z,8.00
2018-07-22T03:08:52.499Z,8.00
2018-07-22T03:09:52.502Z,8.00
2018-07-22T03:10:52.501Z,12.00
2018-07-22T03:11:52.503Z,12.00
2018-07-22T03:12:52.505Z,12.00
2018-07-22T03:13:52.507Z,16.00
2018-07-22T03:14:52.509Z,16.00
2018-07-22T03:15:52.512Z,16.00
2018-07-22T03:16:52.519Z,20.00
2018-07-22T03:17:52.514Z,24.00
2018-07-22T03:18:52.516Z,24.00
2018-07-22T03:19:52.517Z,28.00
2018-07-22T03:20:52.519Z,32.00
2018-07-22T03:21:52.522Z,36.00
2018-07-22T03:22:52.520Z,40.00
2018-07-22T03:23:52.523Z,44.00
2018-07-22T03:24:52.525Z,48.00
2018-07-22T03:25:52.527Z,52.00
2018-07-22T03:26:52.528Z,60.00
2018-07-22T03:27:52.531Z,68.00
2018-07-22T03:28:52.531Z,72.00
2018-07-22T03:29:52.535Z,80.00
2018-07-22T03:30:52.536Z,88.00
2018-07-22T03:31:52.541Z,92.00
2018-07-22T03:32:52.538Z,100.00
2018-07-22T03:33:52.541Z,112.00
2018-07-22T03:34:52.546Z,120.00
2018-07-22T03:35:52.543Z,132.00
2018-07-22T03:36:52.544Z,140.00
2018-07-22T03:37:52.548Z,152.00
2018-07-22T03:38:52.548Z,160.00
2018-07-22T03:39:52.550Z,172.00
2018-07-22T03:40:52.552Z,184.00
2018-07-22T03:41:52.554Z,196.00
2018-07-22T03:42:52.555Z,208.00
2018-07-22T03:43:52.557Z,220.00
2018-07-22T03:44:52.560Z,236.00
2018-07-22T03:45:52.563Z,248.00
2018-07-22T03:46:52.562Z,268.00
2018-07-22T03:47:52.564Z,280.00
2018-07-22T03:48:52.569Z,300.00
2018-07-22T03:49:52.568Z,320.00
2018-07-22T03:50:52.570Z,340.00
2018-07-22T03:51:52.571Z,364.00
2018-07-22T03:52:52.573Z,384.00
2018-07-22T03:53:52.575Z,404.00
2018-07-22T03:54:52.576Z,428.00
2018-07-22T03:55:52.579Z,448.00
2018-07-22T03:56:52.581Z,472.00
2018-07-22T03:57:52.581Z,496.00
2018-07-22T03:58:52.582Z,524.00
2018-07-22T03:59:52.587Z,548.00
2018-07-22T04:00:52.588Z,576.00
2018-07-22T04:01:52.593Z,604.00
2018-07-22T04:02:52.591Z,636.00
2018-07-22T04:03:52.592Z,668.00
2018-07-22T04:04:52.594Z,696.00
2018-07-22T04:05:52.596Z,732.00
2018-07-22T04:06:52.602Z,768.00
2018-07-22T04:07:52.603Z,800.00
2018-07-22T04:08:52.602Z,836.00
2018-07-22T04:09:52.606Z,872.00
2018-07-22T04:10:52.605Z,908.00
2018-07-22T04:11:52.611Z,948.00
2018-07-22T04:12:52.609Z,984.00
2018-07-22T04:13:52.612Z,1024.00
2018-07-22T04:14:52.613Z,1068.00
2018-07-22T04:15:52.614Z,1112.00
2018-07-22T04:16:52.617Z,1160.00
2018-07-22T04:17:52.620Z,1204.00
2018-07-22T04:18:52.620Z,1256.00
2018-07-22T04:19:52.623Z,1300.00
2018-07-22T04:20:52.624Z,1352.00
2018-07-22T04:21:52.627Z,1400.00
2018-07-22T04:22:52.629Z,1452.00
2018-07-22T04:23:52.632Z,1500.00
2018-07-22T04:24:52.636Z,1552.00
2018-07-22T04:25:52.635Z,1608.00
2018-07-22T04:26:52.636Z,1664.00
2018-07-22T04:27:52.638Z,1720.00
2018-07-22T04:28:52.641Z,1772.00
2018-07-22T04:29:52.642Z,1828.00
2018-07-22T04:30:52.644Z,1880.00
2018-07-22T04:31:52.647Z,1932.00
2018-07-22T04:32:52.650Z,1996.00
2018-07-22T04:33:52.652Z,2052.00
2018-07-22T04:34:52.652Z,2108.00
2018-07-22T04:35:52.655Z,2168.00
2018-07-22T04:36:52.657Z,2228.00
2018-07-22T04:37:52.661Z,2292.00
2018-07-22T04:38:52.660Z,2352.00
2018-07-22T04:39:52.662Z,2424.00
2018-07-22T04:40:52.745Z,2496.00
2018-07-22T04:41:52.667Z,2556.00
2018-07-22T04:42:52.669Z,2612.00
2018-07-22T04:43:52.672Z,2672.00
2018-07-22T04:44:52.673Z,2724.00
2018-07-22T04:45:52.677Z,2788.00
2018-07-22T04:46:52.677Z,2852.00
2018-07-22T04:47:52.679Z,2916.00
2018-07-22T04:48:52.695Z,2968.00
2018-07-22T04:49:52.685Z,3036.00
2018-07-22T04:50:52.688Z,3108.00
2018-07-22T04:51:52.688Z,3180.00
2018-07-22T04:52:52.692Z,3260.00
2018-07-22T04:53:52.693Z,3332.00
2018-07-22T04:54:52.695Z,3396.00
2018-07-22T04:55:52.697Z,3460.00
2018-07-22T04:56:52.700Z,3528.00
2018-07-22T04:57:52.701Z,3592.00
2018-07-22T04:58:52.703Z,3676.00
2018-07-22T04:59:52.707Z,3756.00
2018-07-22T05:00:52.710Z,3832.00
2018-07-22T05:01:52.712Z,3928.00
2018-07-22T05:02:52.713Z,4012.00
2018-07-22T05:03:52.717Z,4088.00
2018-07-22T05:04:52.719Z,4156.00
2018-07-22T05:05:52.721Z,4200.00
2018-07-22T05:06:52.726Z,4272.00
2018-07-22T05:07:52.725Z,4332.00
2018-07-22T05:08:52.728Z,4364.00
2018-07-22T05:09:52.731Z,4420.00
2018-07-22T05:10:52.731Z,4476.00
2018-07-22T05:11:52.735Z,4532.00
2018-07-22T05:12:52.737Z,4600.00
2018-07-22T05:13:52.741Z,4656.00
2018-07-22T05:14:52.741Z,4732.00
2018-07-22T05:15:52.746Z,4760.00
2018-07-22T05:16:52.748Z,4828.00
2018-07-22T05:17:52.749Z,4876.00
2018-07-22T05:18:52.753Z,4932.00
2018-07-22T05:19:52.754Z,4996.00
2018-07-22T05:20:52.758Z,5092.00
2018-07-22T05:21:52.759Z,5124.00
2018-07-22T05:22:52.762Z,5188.00
2018-07-22T05:23:52.765Z,5200.00
2018-07-22T05:24:52.768Z,5252.00
2018-07-22T05:25:52.770Z,5308.00
2018-07-22T05:26:52.773Z,5352.00
2018-07-22T05:27:52.774Z,5400.00
2018-07-22T05:28:52.777Z,5492.00
2018-07-22T05:29:52.783Z,5520.00
2018-07-22T05:30:52.782Z,5592.00
2018-07-22T05:31:52.785Z,5632.00
2018-07-22T05:32:52.788Z,5692.00
2018-07-22T05:33:52.790Z,5732.00
2018-07-22T05:34:52.793Z,5832.00
2018-07-22T05:35:52.796Z,5904.00
2018-07-22T05:36:52.799Z,5956.00
2018-07-22T05:37:52.801Z,5996.00
2018-07-22T05:38:52.804Z,6028.00
2018-07-22T05:39:52.839Z,6120.00
2018-07-22T05:40:52.808Z,6184.00
2018-07-22T05:41:52.815Z,6212.00
2018-07-22T05:42:52.814Z,6200.00
2018-07-22T05:43:52.817Z,6312.00
2018-07-22T05:44:52.820Z,6420.00
2018-07-22T05:45:52.823Z,6472.00
2018-07-22T05:46:52.827Z,6532.00
2018-07-22T05:47:52.832Z,6536.00
2018-07-22T05:48:52.831Z,6704.00
2018-07-22T05:49:52.834Z,6792.00
2018-07-22T05:50:52.838Z,6776.00
2018-07-22T05:51:52.841Z,6900.00
2018-07-22T05:52:52.844Z,6940.00
2018-07-22T05:53:52.852Z,6984.00
2018-07-22T05:54:52.849Z,6928.00
2018-07-22T05:55:52.852Z,6932.00
2018-07-22T05:56:52.855Z,7060.00
2018-07-22T05:57:52.863Z,7064.00
2018-07-22T05:58:52.861Z,7068.00
2018-07-22T05:59:52.865Z,7104.00
2018-07-22T06:00:52.867Z,7132.00
2018-07-22T06:01:52.870Z,7168.00
2018-07-22T06:02:52.873Z,7224.00
2018-07-22T06:03:52.875Z,7204.00
2018-07-22T06:04:52.881Z,7240.00
2018-07-22T06:05:52.883Z,7288.00
2018-07-22T06:06:52.884Z,7312.00
2018-07-22T06:07:52.892Z,7416.00
2018-07-22T06:08:52.889Z,7460.00
2018-07-22T06:09:52.895Z,7472.00
2018-07-22T06:10:52.896Z,7520.00
2018-07-22T06:11:52.924Z,7560.00
2018-07-22T06:12:52.905Z,7524.00
2018-07-22T06:13:52.906Z,7560.00
2018-07-22T06:14:52.909Z,7600.00
2018-07-22T06:15:52.913Z,7588.00
2018-07-22T06:16:52.916Z,7656.00
2018-07-22T06:17:52.919Z,7724.00
2018-07-22T06:18:52.951Z,7728.00
2018-07-22T06:19:52.926Z,7776.00
2018-07-22T06:20:52.928Z,7696.00
2018-07-22T06:21:52.931Z,7676.00
2018-07-22T06:22:52.932Z,7736.00
2018-07-22T06:23:52.938Z,7764.00
2018-07-22T06:24:52.942Z,7824.00
2018-07-22T06:25:52.945Z,7860.00
2018-07-22T06:26:52.947Z,7932.00
2018-07-22T06:27:52.949Z,7984.00
2018-07-22T06:28:52.953Z,7940.00
2018-07-22T06:29:52.957Z,7964.00
2018-07-22T06:30:52.960Z,8060.00
2018-07-22T06:31:52.961Z,8028.00
2018-07-22T06:32:52.966Z,8080.00
2018-07-22T06:33:52.970Z,8052.00
2018-07-22T06:34:52.972Z,8112.00
2018-07-22T06:35:52.976Z,8068.00
2018-07-22T06:36:52.980Z,8180.00
2018-07-22T06:37:52.984Z,8244.00
2018-07-22T06:38:52.987Z,8260.00
2018-07-22T06:39:52.989Z,8416.00
2018-07-22T06:40:52.993Z,8404.00
2018-07-22T06:41:52.997Z,8576.00
2018-07-22T06:42:53.000Z,8576.00
2018-07-22T06:43:53.007Z,8568.00
2018-07-22T06:44:53.007Z,8580.00
2018-07-22T06:45:53.011Z,8544.00
2018-07-22T06:46:53.014Z,8484.00
2018-07-22T06:47:53.020Z,8684.00
2018-07-22T06:48:53.022Z,8564.00
2018-07-22T06:49:53.028Z,8864.00
2018-07-22T06:50:53.026Z,8908.00
2018-07-22T06:51:53.032Z,8952.00
2018-07-22T06:52:53.033Z,8972.00
2018-07-22T06:53:53.040Z,8912.00
2018-07-22T06:54:53.043Z,8896.00
2018-07-22T06:55:53.046Z,8992.00
2018-07-22T06:56:53.050Z,9104.00
2018-07-22T06:57:53.056Z,9132.00
2018-07-22T06:58:53.057Z,9152.00
2018-07-22T06:59:53.062Z,9232.00
2018-07-22T07:00:53.089Z,9276.00
2018-07-22T07:01:53.070Z,9312.00
2018-07-22T07:02:53.073Z,9416.00
2018-07-22T07:03:53.076Z,9508.00
2018-07-22T07:04:53.085Z,9572.00
2018-07-22T07:05:53.086Z,9588.00
2018-07-22T07:06:53.089Z,9592.00
2018-07-22T07:07:53.092Z,9628.00
2018-07-22T07:08:53.095Z,9580.00
2018-07-22T07:09:53.101Z,9536.00
2018-07-22T07:10:53.138Z,9628.00
2018-07-22T07:11:53.109Z,9764.00
2018-07-22T07:12:53.112Z,9760.00
2018-07-22T07:13:53.118Z,9688.00
2018-07-22T07:14:53.120Z,9768.00
2018-07-22T07:15:53.124Z,9780.00
2018-07-22T07:16:53.128Z,9780.00
2018-07-22T07:17:53.133Z,9728.00
2018-07-22T07:18:53.136Z,9700.00
2018-07-22T07:19:53.142Z,9788.00
2018-07-22T07:20:53.199Z,9828.00
2018-07-22T07:21:53.150Z,9916.00
2018-07-22T07:22:53.154Z,9900.00
2018-07-22T07:23:53.158Z,9968.00
2018-07-22T07:24:53.163Z,9568.00
2018-07-22T07:25:53.168Z,9300.00
2018-07-22T07:26:53.175Z,9584.00
2018-07-22T07:27:53.175Z,9964.00
2018-07-22T07:28:53.181Z,10124.00
2018-07-22T07:29:53.185Z,9716.00
2018-07-22T07:30:53.190Z,10372.00
2018-07-22T07:31:53.195Z,10336.00
2018-07-22T07:32:53.200Z,10268.00
2018-07-22T07:33:53.203Z,10200.00
2018-07-22T07:34:53.213Z,10160.00
2018-07-22T07:35:53.213Z,10016.00
2018-07-22T07:36:53.217Z,9992.00
2018-07-22T07:37:53.223Z,9936.00
2018-07-22T07:38:53.227Z,9936.00
2018-07-22T07:39:53.231Z,10040.00
2018-07-22T07:40:53.239Z,10140.00
2018-07-22T07:41:53.246Z,10272.00
2018-07-22T07:42:53.245Z,10416.00
2018-07-22T07:43:53.252Z,10600.00
2018-07-22T07:44:53.256Z,16228.00
2018-07-22T07:45:53.262Z,39712.00
2018-07-22T07:46:53.265Z,66240.00
2018-07-22T07:47:53.270Z,78048.00
2018-07-22T07:48:53.276Z,76032.00
2018-07-22T07:49:53.284Z,77376.00
2018-07-22T07:50:53.287Z,78720.00
2018-07-22T07:51:53.294Z,78080.00
2018-07-22T07:52:53.302Z,77248.00
2018-07-22T07:53:53.312Z,76768.00
2018-07-22T07:54:53.317Z,76032.00
2018-07-22T07:55:53.327Z,77664.00
2018-07-22T07:56:53.334Z,77984.00
2018-07-22T07:57:53.341Z,76928.00
2018-07-22T07:58:53.350Z,76320.00
2018-07-22T07:59:53.361Z,75808.00
2018-07-22T08:00:53.375Z,77440.00
2018-07-22T08:01:53.383Z,77568.00
2018-07-22T08:02:53.391Z,74976.00
2018-07-22T08:03:53.426Z,75168.00
2018-07-22T08:04:53.413Z,75328.00
2018-07-22T08:05:53.424Z,76288.00
2018-07-22T08:06:53.437Z,77152.00
2018-07-22T08:07:53.447Z,77312.00
2018-07-22T08:08:53.464Z,78656.00
2018-07-22T08:09:53.476Z,57504.00
2018-07-22T08:10:53.484Z,77696.00
2018-07-22T08:11:53.497Z,77088.00
2018-07-22T08:12:53.511Z,78688.00
2018-07-22T08:13:53.524Z,78112.00
2018-07-22T08:14:53.537Z,75936.00
2018-07-22T08:15:53.550Z,77760.00
2018-07-22T08:16:53.564Z,78464.00
2018-07-22T08:17:53.578Z,78464.00
2018-07-22T08:18:56.438Z,78048.00
2018-07-22T08:19:53.605Z,75584.00
2018-07-22T08:20:53.618Z,60064.00
2018-07-22T08:21:53.665Z,62976.00
2018-07-22T08:22:53.648Z,69472.00
2018-07-22T08:23:53.661Z,71392.00
2018-07-22T08:24:53.675Z,68960.00
2018-07-22T08:25:53.688Z,73792.00
2018-07-22T08:26:53.701Z,73088.00
2018-07-22T08:27:53.716Z,73472.00
2018-07-22T08:28:53.734Z,74112.00
2018-07-22T08:29:53.744Z,75424.00
2018-07-22T08:30:53.758Z,76672.00
2018-07-22T08:31:53.785Z,75680.00
2018-07-22T08:32:53.791Z,76896.00
2018-07-22T08:33:53.801Z,75840.00
2018-07-22T08:34:53.817Z,75488.00
2018-07-22T08:35:53.830Z,76192.00
2018-07-22T08:36:53.845Z,75104.00
2018-07-22T08:37:53.861Z,75872.00
2018-07-22T08:38:53.873Z,75520.00
2018-07-22T08:39:53.886Z,74272.00
2018-07-22T08:40:53.900Z,74624.00
2018-07-22T08:41:53.916Z,74752.00
2018-07-22T08:42:53.929Z,74496.00
2018-07-22T08:43:53.944Z,74880.00
2018-07-22T08:44:53.959Z,73856.00
2018-07-22T08:45:53.973Z,72384.00
2018-07-22T08:46:53.990Z,70560.00
2018-07-22T08:47:54.001Z,69376.00
2018-07-22T08:48:54.018Z,70656.00
2018-07-22T08:49:54.033Z,71872.00
2018-07-22T08:50:54.047Z,72416.00
2018-07-22T08:51:54.067Z,70688.00
2018-07-22T08:52:54.076Z,68448.00
2018-07-22T08:53:54.091Z,68384.00
2018-07-22T08:54:54.104Z,69952.00
2018-07-22T08:55:54.120Z,68256.00
2018-07-22T08:56:54.135Z,68000.00
2018-07-22T08:57:54.152Z,66272.00
2018-07-22T08:58:54.166Z,66208.00
2018-07-22T08:59:54.177Z,67776.00
2018-07-22T09:00:54.192Z,66912.00
2018-07-22T09:01:54.208Z,64576.00
2018-07-22T09:02:54.222Z,62624.00
2018-07-22T09:03:54.237Z,65792.00
2018-07-22T09:04:54.254Z,64672.00
2018-07-22T09:05:54.267Z,63328.00
2018-07-22T09:06:54.281Z,61952.00
2018-07-22T09:07:54.298Z,62016.00
2018-07-22T09:08:54.312Z,62592.00
2018-07-22T09:09:54.327Z,63840.00
2018-07-22T09:10:54.342Z,62112.00
2018-07-22T09:11:54.358Z,63904.00
2018-07-22T09:12:54.372Z,67008.00
2018-07-22T09:13:54.387Z,66176.00
2018-07-22T09:14:54.401Z,65376.00
2018-07-22T09:15:54.418Z,64416.00
2018-07-22T09:16:54.431Z,61024.00
2018-07-22T09:17:54.555Z,61312.00
2018-07-22T09:18:54.462Z,62400.00
2018-07-22T09:19:54.480Z,58720.00
2018-07-22T09:20:54.492Z,62112.00
2018-07-22T09:21:54.508Z,62208.00
2018-07-22T09:22:54.522Z,60352.00
2018-07-22T09:23:54.537Z,59776.00
2018-07-22T09:24:54.552Z,59136.00
2018-07-22T09:25:54.567Z,58272.00
2018-07-22T09:26:54.594Z,57632.00
2018-07-22T09:27:54.597Z,59200.00
2018-07-22T09:28:54.612Z,55072.00
2018-07-22T09:29:54.628Z,44768.00
2018-07-22T09:30:54.643Z,35616.00
2018-07-22T09:31:54.659Z,56224.00
2018-07-22T09:32:54.672Z,56192.00
2018-07-22T09:33:54.690Z,53376.00
2018-07-22T09:34:54.702Z,56544.00
2018-07-22T09:35:54.782Z,54336.00
2018-07-22T09:36:54.733Z,52384.00
2018-07-22T09:37:54.747Z,33280.00
2018-07-22T09:38:54.762Z,30848.00
2018-07-22T09:39:54.777Z,25408.00
2018-07-22T09:40:54.791Z,22496.00
2018-07-22T09:41:54.845Z,30848.00
2018-07-22T09:42:54.821Z,28384.00
2018-07-22T09:43:54.836Z,21024.00
2018-07-22T09:44:54.851Z,19584.00
2018-07-22T09:45:54.865Z,20672.00
2018-07-22T09:46:54.879Z,23776.00
2018-07-22T09:47:54.894Z,22240.00
2018-07-22T09:48:54.910Z,20736.00
2018-07-22T09:49:54.923Z,27712.00
2018-07-22T09:50:54.937Z,19712.00
2018-07-22T09:51:54.956Z,26176.00
2018-07-22T09:52:54.967Z,30432.00
2018-07-22T09:53:54.980Z,31104.00
2018-07-22T09:54:54.993Z,31232.00
2018-07-22T09:55:55.007Z,31936.00
2018-07-22T09:56:55.023Z,17920.00
2018-07-22T09:57:55.036Z,28352.00
2018-07-22T09:58:55.049Z,28096.00
2018-07-22T09:59:55.063Z,25024.00
2018-07-22T10:00:55.079Z,27168.00
2018-07-22T10:01:55.093Z,22912.00
2018-07-22T10:02:55.106Z,26080.00
2018-07-22T10:03:55.120Z,22080.00
2018-07-22T10:04:55.148Z,19136.00
2018-07-22T10:05:55.148Z,24704.00
2018-07-22T10:06:55.162Z,20032.00
2018-07-22T10:07:55.175Z,16036.00
2018-07-22T10:08:55.189Z,20032.00
2018-07-22T10:09:55.204Z,21792.00
2018-07-22T10:10:55.217Z,19968.00
2018-07-22T10:11:55.234Z,24416.00
2018-07-22T10:12:55.245Z,22208.00
2018-07-22T10:13:55.264Z,24064.00
2018-07-22T10:14:55.272Z,24352.00
2018-07-22T10:15:55.287Z,24256.00
2018-07-22T10:16:55.304Z,23616.00
2018-07-22T10:17:55.315Z,18016.00
2018-07-22T10:18:55.327Z,16600.00
2018-07-22T10:19:55.341Z,20480.00
2018-07-22T10:20:55.356Z,21984.00
2018-07-22T10:21:55.370Z,21664.00
2018-07-22T10:22:55.383Z,22624.00
2018-07-22T10:23:55.396Z,22848.00
2018-07-22T10:24:55.415Z,22720.00
2018-07-22T10:25:55.428Z,20512.00
2018-07-22T10:26:55.438Z,21088.00
2018-07-22T10:27:55.453Z,22048.00
2018-07-22T10:28:55.467Z,22336.00
2018-07-22T10:29:55.483Z,22400.00
2018-07-22T10:30:55.496Z,22400.00
2018-07-22T10:31:55.508Z,20992.00
2018-07-22T10:32:55.522Z,22496.00
2018-07-22T10:33:55.536Z,21408.00
2018-07-22T10:34:55.550Z,21344.00
2018-07-22T10:35:55.630Z,21856.00
2018-07-22T10:36:55.579Z,19552.00
2018-07-22T10:37:55.593Z,20384.00
2018-07-22T10:38:55.606Z,20672.00
2018-07-22T10:39:55.622Z,21312.00
2018-07-22T10:40:55.637Z,20960.00
2018-07-22T10:41:55.650Z,22720.00
2018-07-22T10:42:55.663Z,23232.00
2018-07-22T10:43:55.680Z,24640.00
2018-07-22T10:44:55.694Z,26144.00
2018-07-22T10:45:55.706Z,27520.00
2018-07-22T10:46:55.721Z,28928.00
2018-07-22T10:47:55.734Z,28320.00
2018-07-22T10:48:55.749Z,30432.00
2018-07-22T10:49:55.763Z,33024.00
2018-07-22T10:50:55.806Z,35584.00
2018-07-22T10:51:55.791Z,38112.00
2018-07-22T10:52:55.807Z,37920.00
2018-07-22T10:53:55.821Z,34496.00
2018-07-22T10:54:55.836Z,30048.00
2018-07-22T10:55:55.848Z,27168.00
2018-07-22T10:56:55.861Z,25760.00
2018-07-22T10:57:55.876Z,24128.00
2018-07-22T10:58:55.889Z,22752.00
2018-07-22T10:59:55.903Z,21920.00
2018-07-22T11:00:55.919Z,20800.00
2018-07-22T11:01:55.931Z,19712.00
2018-07-22T11:02:55.945Z,18560.00
2018-07-22T11:03:55.960Z,17376.00
2018-07-22T11:04:55.975Z,16736.00
2018-07-22T11:05:55.987Z,16176.00
2018-07-22T11:06:56.002Z,15868.00
2018-07-22T11:07:56.015Z,15396.00
2018-07-22T11:08:56.034Z,15204.00
2018-07-22T11:09:56.044Z,15396.00
2018-07-22T11:10:56.057Z,15588.00
2018-07-22T11:11:56.072Z,15340.00
2018-07-22T11:12:56.085Z,14328.00
2018-07-22T11:13:56.098Z,12564.00
2018-07-22T11:14:56.120Z,12520.00
2018-07-22T11:15:56.125Z,15588.00
2018-07-22T11:16:56.140Z,15784.00
2018-07-22T11:17:56.152Z,15664.00
2018-07-22T11:18:56.165Z,16136.00
2018-07-22T11:19:56.178Z,16016.00
2018-07-22T11:20:56.231Z,10256.00
2018-07-22T11:21:56.210Z,9480.00
2018-07-22T11:22:56.219Z,14648.00
2018-07-22T11:23:56.232Z,13672.00
2018-07-22T11:24:56.246Z,14252.00
2018-07-22T11:25:56.260Z,13924.00
2018-07-22T11:26:56.273Z,12392.00
2018-07-22T11:27:56.287Z,12088.00
2018-07-22T11:28:56.316Z,11628.00
2018-07-22T11:29:56.313Z,11272.00
2018-07-22T11:30:56.324Z,11300.00
2018-07-22T11:31:56.338Z,10412.00
2018-07-22T11:32:56.351Z,9728.00
2018-07-22T11:33:56.365Z,8720.00
2018-07-22T11:34:56.377Z,11916.00
2018-07-22T11:35:56.422Z,12096.00
2018-07-22T11:36:56.401Z,12060.00
2018-07-22T11:37:56.413Z,11912.00
2018-07-22T11:38:56.425Z,11740.00
2018-07-22T11:39:56.437Z,11932.00
2018-07-22T11:40:56.452Z,11936.00
2018-07-22T11:41:56.463Z,12036.00
2018-07-22T11:42:56.477Z,12320.00
2018-07-22T11:43:56.500Z,11628.00
2018-07-22T11:44:56.499Z,11484.00
2018-07-22T11:45:56.512Z,11328.00
2018-07-22T11:46:56.521Z,11132.00
2018-07-22T11:47:56.537Z,10932.00
2018-07-22T11:48:56.546Z,11492.00
2018-07-22T11:49:56.558Z,10960.00
2018-07-22T11:50:56.567Z,10424.00
2018-07-22T11:51:56.581Z,9488.00
2018-07-22T11:52:56.595Z,9868.00
2018-07-22T11:53:56.605Z,10292.00
2018-07-22T11:54:56.615Z,9784.00
2018-07-22T11:55:56.628Z,9588.00
2018-07-22T11:56:56.638Z,10396.00
2018-07-22T11:57:56.651Z,9740.00
2018-07-22T11:58:56.662Z,11224.00
2018-07-22T11:59:56.671Z,11224.00
2018-07-22T12:00:56.720Z,11048.00
2018-07-22T12:01:56.694Z,10852.00
2018-07-22T12:02:56.705Z,10188.00
2018-07-22T12:03:56.716Z,9892.00
2018-07-22T12:04:56.728Z,10536.00
2018-07-22T12:05:56.748Z,11032.00
2018-07-22T12:06:56.751Z,10636.00
2018-07-22T12:07:56.761Z,10644.00
2018-07-22T12:08:56.772Z,9024.00
2018-07-22T12:09:56.788Z,8464.00
2018-07-22T12:10:56.794Z,8324.00
2018-07-22T12:11:56.805Z,9888.00
2018-07-22T12:12:56.818Z,11088.00
2018-07-22T12:13:56.829Z,11052.00
2018-07-22T12:14:56.839Z,8740.00
2018-07-22T12:15:56.850Z,8936.00
2018-07-22T12:16:56.860Z,9204.00
2018-07-22T12:17:56.872Z,9692.00